sensor_id;sensor_type;location;lat;lon;timestamp;P1;durP1;ratioP1;P2;durP2;ratioP2
53339;SDS011;46212;50.258;19.062;2023-04-06T00:01:24;48.85;;;22.25;;
53339;SDS011;46212;50.258;19.062;2023-04-06T00:03:50;45.85;;;21.83;;
53339;SDS011;46212;50.258;19.062;2023-04-06T00:06:15;52.25;;;23.15;;
53339;SDS011;46212;50.258;19.062;2023-04-06T00:08:41;52.13;;;25.15;;
53339;SDS011;46212;50.258;19.062;2023-04-06T00:11:07;40.75;;;22.33;;
53339;SDS011;46212;50.258;19.062;2023-04-06T00:13:32;52.67;;;22.75;;
53339;SDS011;46212;50.258;19.062;2023-04-06T00:15:58;47.67;;;23.13;;
53339;SDS011;46212;50.258;19.062;2023-04-06T00:18:23;48.38;;;23.02;;
53339;SDS011;46212;50.258;19.062;2023-04-06T00:20:49;44.53;;;22.38;;
53339;SDS011;46212;50.258;19.062;2023-04-06T00:23:15;45.80;;;22.73;;
53339;SDS011;46212;50.258;19.062;2023-04-06T00:25:41;55.42;;;23.35;;
53339;SDS011;46212;50.258;19.062;2023-04-06T00:28:06;51.97;;;26.08;;
53339;SDS011;46212;50.258;19.062;2023-04-06T00:30:32;53.30;;;23.90;;
53339;SDS011;46212;50.258;19.062;2023-04-06T00:32:57;55.13;;;23.10;;
53339;SDS011;46212;50.258;19.062;2023-04-06T00:35:23;57.67;;;24.25;;
53339;SDS011;46212;50.258;19.062;2023-04-06T00:37:48;43.28;;;23.35;;
53339;SDS011;46212;50.258;19.062;2023-04-06T00:40:13;50.30;;;20.20;;
53339;SDS011;46212;50.258;19.062;2023-04-06T00:42:39;54.10;;;23.45;;
53339;SDS011;46212;50.258;19.062;2023-04-06T00:45:05;59.10;;;24.10;;
53339;SDS011;46212;50.258;19.062;2023-04-06T00:47:32;53.17;;;22.13;;
53339;SDS011;46212;50.258;19.062;2023-04-06T00:49:58;46.22;;;21.52;;
53339;SDS011;46212;50.258;19.062;2023-04-06T00:52:24;52.60;;;23.13;;
53339;SDS011;46212;50.258;19.062;2023-04-06T00:54:50;59.25;;;24.83;;
53339;SDS011;46212;50.258;19.062;2023-04-06T00:57:16;46.97;;;21.65;;
53339;SDS011;46212;50.258;19.062;2023-04-06T00:59:42;52.05;;;24.48;;
53339;SDS011;46212;50.258;19.062;2023-04-06T01:02:08;55.47;;;25.95;;
53339;SDS011;46212;50.258;19.062;2023-04-06T01:04:34;55.25;;;22.73;;
53339;SDS011;46212;50.258;19.062;2023-04-06T01:07:00;43.92;;;20.50;;
53339;SDS011;46212;50.258;19.062;2023-04-06T01:09:29;56.55;;;23.60;;
53339;SDS011;46212;50.258;19.062;2023-04-06T01:11:55;51.88;;;23.10;;
53339;SDS011;46212;50.258;19.062;2023-04-06T01:14:22;48.95;;;21.92;;
53339;SDS011;46212;50.258;19.062;2023-04-06T01:16:48;51.80;;;24.48;;
53339;SDS011;46212;50.258;19.062;2023-04-06T01:19:14;58.95;;;25.67;;
53339;SDS011;46212;50.258;19.062;2023-04-06T01:21:40;42.33;;;21.73;;
53339;SDS011;46212;50.258;19.062;2023-04-06T01:24:06;48.40;;;22.33;;
53339;SDS011;46212;50.258;19.062;2023-04-06T01:26:32;48.50;;;23.70;;
53339;SDS011;46212;50.258;19.062;2023-04-06T01:28:59;46.42;;;22.63;;
53339;SDS011;46212;50.258;19.062;2023-04-06T01:31:25;45.88;;;21.25;;
53339;SDS011;46212;50.258;19.062;2023-04-06T01:33:51;52.90;;;24.20;;
53339;SDS011;46212;50.258;19.062;2023-04-06T01:36:17;50.30;;;23.42;;
53339;SDS011;46212;50.258;19.062;2023-04-06T01:38:42;42.83;;;21.00;;
53339;SDS011;46212;50.258;19.062;2023-04-06T01:41:08;45.10;;;22.05;;
53339;SDS011;46212;50.258;19.062;2023-04-06T01:43:34;44.47;;;20.08;;
53339;SDS011;46212;50.258;19.062;2023-04-06T01:45:59;48.63;;;21.48;;
53339;SDS011;46212;50.258;19.062;2023-04-06T01:48:26;53.95;;;22.67;;
53339;SDS011;46212;50.258;19.062;2023-04-06T01:50:52;47.45;;;23.38;;
53339;SDS011;46212;50.258;19.062;2023-04-06T01:53:17;50.67;;;23.30;;
53339;SDS011;46212;50.258;19.062;2023-04-06T01:55:43;45.17;;;22.75;;
53339;SDS011;46212;50.258;19.062;2023-04-06T01:58:08;59.33;;;24.10;;
53339;SDS011;46212;50.258;19.062;2023-04-06T02:00:33;44.85;;;23.45;;
53339;SDS011;46212;50.258;19.062;2023-04-06T02:02:59;55.42;;;23.35;;
53339;SDS011;46212;50.258;19.062;2023-04-06T02:05:25;45.22;;;21.90;;
53339;SDS011;46212;50.258;19.062;2023-04-06T02:07:51;52.88;;;21.85;;
53339;SDS011;46212;50.258;19.062;2023-04-06T02:10:16;37.50;;;21.38;;
53339;SDS011;46212;50.258;19.062;2023-04-06T02:12:42;49.85;;;25.73;;
53339;SDS011;46212;50.258;19.062;2023-04-06T02:15:08;42.85;;;21.30;;
53339;SDS011;46212;50.258;19.062;2023-04-06T02:17:34;50.33;;;22.83;;
53339;SDS011;46212;50.258;19.062;2023-04-06T02:19:59;45.05;;;22.42;;
53339;SDS011;46212;50.258;19.062;2023-04-06T02:22:24;47.25;;;20.92;;
53339;SDS011;46212;50.258;19.062;2023-04-06T02:24:50;44.95;;;21.20;;
53339;SDS011;46212;50.258;19.062;2023-04-06T02:27:15;52.42;;;24.33;;
53339;SDS011;46212;50.258;19.062;2023-04-06T02:29:41;42.90;;;21.55;;
53339;SDS011;46212;50.258;19.062;2023-04-06T02:32:06;52.03;;;21.35;;
53339;SDS011;46212;50.258;19.062;2023-04-06T02:34:32;37.92;;;20.73;;
53339;SDS011;46212;50.258;19.062;2023-04-06T02:36:57;52.92;;;22.52;;
53339;SDS011;46212;50.258;19.062;2023-04-06T02:39:23;48.70;;;24.58;;
53339;SDS011;46212;50.258;19.062;2023-04-06T02:41:48;57.10;;;21.65;;
53339;SDS011;46212;50.258;19.062;2023-04-06T02:44:14;46.38;;;21.38;;
53339;SDS011;46212;50.258;19.062;2023-04-06T02:46:39;45.60;;;22.58;;
53339;SDS011;46212;50.258;19.062;2023-04-06T02:49:05;41.58;;;21.35;;
53339;SDS011;46212;50.258;19.062;2023-04-06T02:51:30;59.33;;;22.10;;
53339;SDS011;46212;50.258;19.062;2023-04-06T02:53:56;46.03;;;21.48;;
53339;SDS011;46212;50.258;19.062;2023-04-06T02:56:21;46.88;;;21.55;;
53339;SDS011;46212;50.258;19.062;2023-04-06T02:58:47;46.03;;;20.70;;
53339;SDS011;46212;50.258;19.062;2023-04-06T03:01:12;40.33;;;19.67;;
53339;SDS011;46212;50.258;19.062;2023-04-06T03:03:38;50.80;;;23.08;;
53339;SDS011;46212;50.258;19.062;2023-04-06T03:06:03;51.05;;;22.73;;
53339;SDS011;46212;50.258;19.062;2023-04-06T03:08:29;59.53;;;21.42;;
53339;SDS011;46212;50.258;19.062;2023-04-06T03:10:55;50.47;;;21.75;;
53339;SDS011;46212;50.258;19.062;2023-04-06T03:13:20;46.47;;;20.63;;
53339;SDS011;46212;50.258;19.062;2023-04-06T03:15:46;46.28;;;18.67;;
53339;SDS011;46212;50.258;19.062;2023-04-06T03:18:11;51.97;;;22.58;;
53339;SDS011;46212;50.258;19.062;2023-04-06T03:20:37;46.85;;;20.30;;
53339;SDS011;46212;50.258;19.062;2023-04-06T03:23:02;45.28;;;18.27;;
53339;SDS011;46212;50.258;19.062;2023-04-06T03:25:28;41.90;;;18.75;;
53339;SDS011;46212;50.258;19.062;2023-04-06T03:27:55;34.95;;;18.85;;
53339;SDS011;46212;50.258;19.062;2023-04-06T03:30:20;34.72;;;21.08;;
53339;SDS011;46212;50.258;19.062;2023-04-06T03:32:45;40.63;;;19.38;;
53339;SDS011;46212;50.258;19.062;2023-04-06T03:35:11;41.25;;;18.35;;
53339;SDS011;46212;50.258;19.062;2023-04-06T03:37:36;32.90;;;18.90;;
53339;SDS011;46212;50.258;19.062;2023-04-06T03:40:02;41.83;;;20.63;;
53339;SDS011;46212;50.258;19.062;2023-04-06T03:42:29;35.55;;;18.83;;
53339;SDS011;46212;50.258;19.062;2023-04-06T03:44:55;37.28;;;19.05;;
53339;SDS011;46212;50.258;19.062;2023-04-06T03:47:21;36.65;;;18.05;;
53339;SDS011;46212;50.258;19.062;2023-04-06T03:49:46;41.53;;;20.55;;
53339;SDS011;46212;50.258;19.062;2023-04-06T03:52:12;43.42;;;20.35;;
53339;SDS011;46212;50.258;19.062;2023-04-06T03:54:37;41.75;;;19.02;;
53339;SDS011;46212;50.258;19.062;2023-04-06T03:57:03;35.45;;;18.33;;
53339;SDS011;46212;50.258;19.062;2023-04-06T03:59:29;52.80;;;21.30;;
53339;SDS011;46212;50.258;19.062;2023-04-06T04:01:54;36.45;;;18.58;;
53339;SDS011;46212;50.258;19.062;2023-04-06T04:04:20;38.38;;;19.08;;
53339;SDS011;46212;50.258;19.062;2023-04-06T04:06:45;37.63;;;19.20;;
53339;SDS011;46212;50.258;19.062;2023-04-06T04:09:11;49.72;;;20.65;;
53339;SDS011;46212;50.258;19.062;2023-04-06T04:11:36;46.75;;;22.10;;
53339;SDS011;46212;50.258;19.062;2023-04-06T04:14:02;49.85;;;19.83;;
53339;SDS011;46212;50.258;19.062;2023-04-06T04:16:27;43.38;;;19.88;;
53339;SDS011;46212;50.258;19.062;2023-04-06T04:18:52;43.28;;;19.73;;
53339;SDS011;46212;50.258;19.062;2023-04-06T04:21:18;34.90;;;17.35;;
53339;SDS011;46212;50.258;19.062;2023-04-06T04:23:43;41.72;;;18.45;;
53339;SDS011;46212;50.258;19.062;2023-04-06T04:26:08;46.15;;;20.63;;
53339;SDS011;46212;50.258;19.062;2023-04-06T04:28:34;40.03;;;18.63;;
53339;SDS011;46212;50.258;19.062;2023-04-06T04:30:59;35.78;;;18.80;;
53339;SDS011;46212;50.258;19.062;2023-04-06T04:33:25;37.92;;;18.60;;
53339;SDS011;46212;50.258;19.062;2023-04-06T04:35:50;35.30;;;18.67;;
53339;SDS011;46212;50.258;19.062;2023-04-06T04:38:16;41.95;;;17.75;;
53339;SDS011;46212;50.258;19.062;2023-04-06T04:40:41;47.05;;;19.27;;
53339;SDS011;46212;50.258;19.062;2023-04-06T04:43:07;47.20;;;20.75;;
53339;SDS011;46212;50.258;19.062;2023-04-06T04:45:32;39.22;;;18.10;;
53339;SDS011;46212;50.258;19.062;2023-04-06T04:47:57;41.30;;;20.67;;
53339;SDS011;46212;50.258;19.062;2023-04-06T04:50:23;36.92;;;19.30;;
53339;SDS011;46212;50.258;19.062;2023-04-06T04:52:48;41.92;;;20.23;;
53339;SDS011;46212;50.258;19.062;2023-04-06T04:55:14;40.40;;;18.60;;
53339;SDS011;46212;50.258;19.062;2023-04-06T04:57:39;39.22;;;18.15;;
53339;SDS011;46212;50.258;19.062;2023-04-06T05:00:05;44.83;;;19.98;;
53339;SDS011;46212;50.258;19.062;2023-04-06T05:02:31;44.37;;;19.93;;
53339;SDS011;46212;50.258;19.062;2023-04-06T05:04:56;37.75;;;18.45;;
53339;SDS011;46212;50.258;19.062;2023-04-06T05:07:22;32.30;;;17.42;;
53339;SDS011;46212;50.258;19.062;2023-04-06T05:09:48;47.97;;;18.38;;
53339;SDS011;46212;50.258;19.062;2023-04-06T05:12:13;46.28;;;19.25;;
53339;SDS011;46212;50.258;19.062;2023-04-06T05:14:39;42.53;;;18.58;;
53339;SDS011;46212;50.258;19.062;2023-04-06T05:17:05;46.33;;;21.60;;
53339;SDS011;46212;50.258;19.062;2023-04-06T05:19:30;42.90;;;19.63;;
53339;SDS011;46212;50.258;19.062;2023-04-06T05:21:56;36.45;;;18.25;;
53339;SDS011;46212;50.258;19.062;2023-04-06T05:24:21;46.80;;;20.55;;
53339;SDS011;46212;50.258;19.062;2023-04-06T05:26:47;44.47;;;19.88;;
53339;SDS011;46212;50.258;19.062;2023-04-06T05:29:13;42.88;;;21.17;;
53339;SDS011;46212;50.258;19.062;2023-04-06T05:31:39;34.00;;;19.43;;
53339;SDS011;46212;50.258;19.062;2023-04-06T05:34:05;36.00;;;19.15;;
53339;SDS011;46212;50.258;19.062;2023-04-06T05:36:30;38.47;;;18.67;;
53339;SDS011;46212;50.258;19.062;2023-04-06T05:38:57;39.40;;;20.15;;
53339;SDS011;46212;50.258;19.062;2023-04-06T05:41:23;38.03;;;19.67;;
53339;SDS011;46212;50.258;19.062;2023-04-06T05:43:48;40.53;;;19.67;;
53339;SDS011;46212;50.258;19.062;2023-04-06T05:46:14;42.38;;;18.63;;
53339;SDS011;46212;50.258;19.062;2023-04-06T05:48:39;33.08;;;17.25;;
53339;SDS011;46212;50.258;19.062;2023-04-06T05:51:04;33.08;;;18.63;;
53339;SDS011;46212;50.258;19.062;2023-04-06T05:53:33;37.15;;;16.65;;
53339;SDS011;46212;50.258;19.062;2023-04-06T05:56:01;40.03;;;16.77;;
53339;SDS011;46212;50.258;19.062;2023-04-06T05:58:28;249.02;;;184.15;;
53339;SDS011;46212;50.258;19.062;2023-04-06T06:00:57;98.95;;;68.90;;
53339;SDS011;46212;50.258;19.062;2023-04-06T06:03:23;57.00;;;41.80;;
53339;SDS011;46212;50.258;19.062;2023-04-06T06:05:48;49.53;;;30.90;;
53339;SDS011;46212;50.258;19.062;2023-04-06T06:08:14;46.72;;;22.30;;
53339;SDS011;46212;50.258;19.062;2023-04-06T06:10:39;42.47;;;17.52;;
53339;SDS011;46212;50.258;19.062;2023-04-06T06:13:05;38.50;;;18.20;;
53339;SDS011;46212;50.258;19.062;2023-04-06T06:15:30;40.15;;;17.63;;
53339;SDS011;46212;50.258;19.062;2023-04-06T06:17:56;33.53;;;17.13;;
53339;SDS011;46212;50.258;19.062;2023-04-06T06:20:21;31.98;;;17.13;;
53339;SDS011;46212;50.258;19.062;2023-04-06T06:22:47;36.40;;;17.08;;
53339;SDS011;46212;50.258;19.062;2023-04-06T06:25:12;32.45;;;17.90;;
53339;SDS011;46212;50.258;19.062;2023-04-06T06:27:38;34.85;;;20.67;;
53339;SDS011;46212;50.258;19.062;2023-04-06T06:30:03;29.60;;;16.30;;
53339;SDS011;46212;50.258;19.062;2023-04-06T06:32:29;31.27;;;16.88;;
53339;SDS011;46212;50.258;19.062;2023-04-06T06:34:55;104.18;;;49.45;;
53339;SDS011;46212;50.258;19.062;2023-04-06T06:37:20;62.63;;;32.50;;
53339;SDS011;46212;50.258;19.062;2023-04-06T06:39:46;39.97;;;23.75;;
53339;SDS011;46212;50.258;19.062;2023-04-06T06:42:11;41.45;;;27.52;;
53339;SDS011;46212;50.258;19.062;2023-04-06T06:44:36;30.42;;;17.50;;
53339;SDS011;46212;50.258;19.062;2023-04-06T06:47:02;47.45;;;22.80;;
53339;SDS011;46212;50.258;19.062;2023-04-06T06:49:27;72.50;;;52.58;;
53339;SDS011;46212;50.258;19.062;2023-04-06T06:51:52;41.08;;;22.27;;
53339;SDS011;46212;50.258;19.062;2023-04-06T06:54:18;37.08;;;25.48;;
53339;SDS011;46212;50.258;19.062;2023-04-06T06:56:43;40.22;;;19.92;;
53339;SDS011;46212;50.258;19.062;2023-04-06T06:59:09;31.20;;;17.75;;
53339;SDS011;46212;50.258;19.062;2023-04-06T07:01:34;28.13;;;14.40;;
53339;SDS011;46212;50.258;19.062;2023-04-06T07:04:00;30.70;;;14.98;;
53339;SDS011;46212;50.258;19.062;2023-04-06T07:06:25;36.17;;;16.05;;
53339;SDS011;46212;50.258;19.062;2023-04-06T07:08:51;45.55;;;24.13;;
53339;SDS011;46212;50.258;19.062;2023-04-06T07:11:16;28.67;;;13.88;;
53339;SDS011;46212;50.258;19.062;2023-04-06T07:13:42;21.75;;;12.20;;
53339;SDS011;46212;50.258;19.062;2023-04-06T07:16:08;17.73;;;10.30;;
53339;SDS011;46212;50.258;19.062;2023-04-06T07:18:33;23.20;;;11.50;;
53339;SDS011;46212;50.258;19.062;2023-04-06T07:20:58;18.50;;;9.30;;
53339;SDS011;46212;50.258;19.062;2023-04-06T07:23:24;20.40;;;9.88;;
53339;SDS011;46212;50.258;19.062;2023-04-06T07:25:49;17.48;;;7.55;;
53339;SDS011;46212;50.258;19.062;2023-04-06T07:28:17;13.77;;;6.75;;
53339;SDS011;46212;50.258;19.062;2023-04-06T07:30:43;10.82;;;5.78;;
53339;SDS011;46212;50.258;19.062;2023-04-06T07:33:08;17.85;;;7.60;;
53339;SDS011;46212;50.258;19.062;2023-04-06T07:35:33;12.25;;;8.00;;
53339;SDS011;46212;50.258;19.062;2023-04-06T07:37:59;16.98;;;7.95;;
53339;SDS011;46212;50.258;19.062;2023-04-06T07:40:25;14.65;;;7.72;;
53339;SDS011;46212;50.258;19.062;2023-04-06T07:42:51;14.57;;;8.18;;
53339;SDS011;46212;50.258;19.062;2023-04-06T07:45:17;10.75;;;5.18;;
53339;SDS011;46212;50.258;19.062;2023-04-06T07:47:43;11.80;;;6.35;;
53339;SDS011;46212;50.258;19.062;2023-04-06T07:50:08;11.32;;;6.18;;
53339;SDS011;46212;50.258;19.062;2023-04-06T07:52:35;10.45;;;5.95;;
53339;SDS011;46212;50.258;19.062;2023-04-06T07:55:00;13.27;;;5.63;;
53339;SDS011;46212;50.258;19.062;2023-04-06T07:57:25;13.10;;;6.65;;
53339;SDS011;46212;50.258;19.062;2023-04-06T07:59:51;17.02;;;9.77;;
53339;SDS011;46212;50.258;19.062;2023-04-06T08:02:16;13.35;;;6.40;;
53339;SDS011;46212;50.258;19.062;2023-04-06T08:04:42;12.18;;;6.30;;
53339;SDS011;46212;50.258;19.062;2023-04-06T08:07:07;12.27;;;6.25;;
53339;SDS011;46212;50.258;19.062;2023-04-06T08:09:33;11.15;;;5.93;;
53339;SDS011;46212;50.258;19.062;2023-04-06T08:11:58;12.23;;;6.95;;
53339;SDS011;46212;50.258;19.062;2023-04-06T08:14:23;15.45;;;6.43;;
53339;SDS011;46212;50.258;19.062;2023-04-06T08:16:49;12.73;;;6.70;;
53339;SDS011;46212;50.258;19.062;2023-04-06T08:19:15;10.85;;;6.15;;
53339;SDS011;46212;50.258;19.062;2023-04-06T08:21:42;13.57;;;6.15;;
53339;SDS011;46212;50.258;19.062;2023-04-06T08:24:08;12.50;;;6.03;;
53339;SDS011;46212;50.258;19.062;2023-04-06T08:26:33;12.30;;;6.13;;
53339;SDS011;46212;50.258;19.062;2023-04-06T08:28:59;13.82;;;6.88;;
53339;SDS011;46212;50.258;19.062;2023-04-06T08:31:24;8.18;;;6.05;;
53339;SDS011;46212;50.258;19.062;2023-04-06T08:33:51;12.98;;;6.47;;
53339;SDS011;46212;50.258;19.062;2023-04-06T08:36:16;7.25;;;5.15;;
53339;SDS011;46212;50.258;19.062;2023-04-06T08:38:45;10.93;;;6.50;;
53339;SDS011;46212;50.258;19.062;2023-04-06T08:41:11;11.07;;;5.88;;
53339;SDS011;46212;50.258;19.062;2023-04-06T08:43:46;11.20;;;6.32;;
53339;SDS011;46212;50.258;19.062;2023-04-06T08:46:13;12.25;;;6.15;;
53339;SDS011;46212;50.258;19.062;2023-04-06T08:48:40;12.80;;;6.10;;
53339;SDS011;46212;50.258;19.062;2023-04-06T08:51:07;11.27;;;7.70;;
53339;SDS011;46212;50.258;19.062;2023-04-06T08:53:33;15.52;;;8.48;;
53339;SDS011;46212;50.258;19.062;2023-04-06T08:55:58;13.02;;;7.88;;
53339;SDS011;46212;50.258;19.062;2023-04-06T08:58:26;12.10;;;7.47;;
53339;SDS011;46212;50.258;19.062;2023-04-06T09:00:56;11.88;;;5.78;;
53339;SDS011;46212;50.258;19.062;2023-04-06T09:03:22;16.52;;;8.15;;
53339;SDS011;46212;50.258;19.062;2023-04-06T09:05:48;15.85;;;7.47;;
53339;SDS011;46212;50.258;19.062;2023-04-06T09:08:15;11.30;;;6.70;;
53339;SDS011;46212;50.258;19.062;2023-04-06T09:10:40;14.10;;;8.32;;
53339;SDS011;46212;50.258;19.062;2023-04-06T09:13:06;14.20;;;7.70;;
53339;SDS011;46212;50.258;19.062;2023-04-06T09:15:32;20.35;;;8.55;;
53339;SDS011;46212;50.258;19.062;2023-04-06T09:17:58;17.10;;;10.02;;
53339;SDS011;46212;50.258;19.062;2023-04-06T09:20:24;17.48;;;9.32;;
53339;SDS011;46212;50.258;19.062;2023-04-06T09:22:53;18.30;;;10.57;;
53339;SDS011;46212;50.258;19.062;2023-04-06T09:25:20;17.50;;;9.05;;
53339;SDS011;46212;50.258;19.062;2023-04-06T09:27:48;13.73;;;8.98;;
53339;SDS011;46212;50.258;19.062;2023-04-06T09:30:14;16.77;;;9.20;;
53339;SDS011;46212;50.258;19.062;2023-04-06T09:35:14;18.20;;;8.55;;
53339;SDS011;46212;50.258;19.062;2023-04-06T09:37:40;18.05;;;7.93;;
53339;SDS011;46212;50.258;19.062;2023-04-06T09:40:06;18.17;;;7.55;;
53339;SDS011;46212;50.258;19.062;2023-04-06T09:42:32;14.93;;;8.32;;
53339;SDS011;46212;50.258;19.062;2023-04-06T09:47:25;19.13;;;7.85;;
53339;SDS011;46212;50.258;19.062;2023-04-06T09:49:53;15.32;;;7.22;;
53339;SDS011;46212;50.258;19.062;2023-04-06T09:52:22;15.32;;;8.93;;
53339;SDS011;46212;50.258;19.062;2023-04-06T09:54:51;15.65;;;8.75;;
53339;SDS011;46212;50.258;19.062;2023-04-06T09:57:25;25.55;;;14.65;;
53339;SDS011;46212;50.258;19.062;2023-04-06T10:02:56;14.63;;;7.75;;
53339;SDS011;46212;50.258;19.062;2023-04-06T10:08:00;15.23;;;6.70;;
53339;SDS011;46212;50.258;19.062;2023-04-06T10:10:30;11.10;;;7.28;;
53339;SDS011;46212;50.258;19.062;2023-04-06T10:12:56;13.70;;;6.75;;
53339;SDS011;46212;50.258;19.062;2023-04-06T10:15:22;11.13;;;7.63;;
53339;SDS011;46212;50.258;19.062;2023-04-06T10:17:49;11.23;;;7.43;;
53339;SDS011;46212;50.258;19.062;2023-04-06T10:20:17;8.52;;;4.93;;
53339;SDS011;46212;50.258;19.062;2023-04-06T10:25:55;10.63;;;6.75;;
53339;SDS011;46212;50.258;19.062;2023-04-06T10:28:21;14.57;;;7.88;;
53339;SDS011;46212;50.258;19.062;2023-04-06T10:30:47;15.90;;;7.90;;
53339;SDS011;46212;50.258;19.062;2023-04-06T10:33:22;9.63;;;5.63;;
53339;SDS011;46212;50.258;19.062;2023-04-06T10:35:47;13.00;;;5.93;;
53339;SDS011;46212;50.258;19.062;2023-04-06T10:38:12;14.00;;;7.05;;
53339;SDS011;46212;50.258;19.062;2023-04-06T10:40:45;11.60;;;6.32;;
53339;SDS011;46212;50.258;19.062;2023-04-06T10:43:23;8.65;;;6.10;;
53339;SDS011;46212;50.258;19.062;2023-04-06T10:45:55;10.52;;;7.13;;
53339;SDS011;46212;50.258;19.062;2023-04-06T10:48:22;13.45;;;7.32;;
53339;SDS011;46212;50.258;19.062;2023-04-06T10:50:49;11.80;;;6.68;;
53339;SDS011;46212;50.258;19.062;2023-04-06T10:53:23;10.75;;;6.72;;
53339;SDS011;46212;50.258;19.062;2023-04-06T10:55:50;13.60;;;7.43;;
53339;SDS011;46212;50.258;19.062;2023-04-06T10:58:17;10.63;;;6.55;;
53339;SDS011;46212;50.258;19.062;2023-04-06T11:00:46;12.02;;;7.43;;
53339;SDS011;46212;50.258;19.062;2023-04-06T11:03:13;12.07;;;7.15;;
53339;SDS011;46212;50.258;19.062;2023-04-06T11:05:43;11.93;;;6.38;;
53339;SDS011;46212;50.258;19.062;2023-04-06T11:08:22;10.18;;;5.93;;
53339;SDS011;46212;50.258;19.062;2023-04-06T11:10:50;14.45;;;5.97;;
53339;SDS011;46212;50.258;19.062;2023-04-06T11:13:16;11.88;;;5.45;;
53339;SDS011;46212;50.258;19.062;2023-04-06T11:15:42;12.50;;;6.87;;
53339;SDS011;46212;50.258;19.062;2023-04-06T11:18:07;8.52;;;5.03;;
53339;SDS011;46212;50.258;19.062;2023-04-06T11:20:33;10.63;;;6.22;;
53339;SDS011;46212;50.258;19.062;2023-04-06T11:22:58;14.18;;;7.78;;
53339;SDS011;46212;50.258;19.062;2023-04-06T11:25:28;10.35;;;5.40;;
53339;SDS011;46212;50.258;19.062;2023-04-06T11:27:56;9.65;;;5.38;;
53339;SDS011;46212;50.258;19.062;2023-04-06T11:30:22;11.18;;;5.88;;
53339;SDS011;46212;50.258;19.062;2023-04-06T11:32:47;9.77;;;5.10;;
53339;SDS011;46212;50.258;19.062;2023-04-06T11:35:22;14.57;;;6.22;;
53339;SDS011;46212;50.258;19.062;2023-04-06T11:37:49;10.25;;;6.22;;
53339;SDS011;46212;50.258;19.062;2023-04-06T11:40:15;9.77;;;5.43;;
53339;SDS011;46212;50.258;19.062;2023-04-06T11:42:45;16.80;;;7.57;;
53339;SDS011;46212;50.258;19.062;2023-04-06T11:45:17;12.93;;;7.05;;
53339;SDS011;46212;50.258;19.062;2023-04-06T11:47:42;12.68;;;7.35;;
53339;SDS011;46212;50.258;19.062;2023-04-06T11:50:09;11.93;;;6.88;;
53339;SDS011;46212;50.258;19.062;2023-04-06T11:52:38;15.50;;;6.88;;
53339;SDS011;46212;50.258;19.062;2023-04-06T11:55:13;10.25;;;4.82;;
53339;SDS011;46212;50.258;19.062;2023-04-06T11:57:41;10.75;;;6.05;;
53339;SDS011;46212;50.258;19.062;2023-04-06T12:00:10;8.70;;;5.30;;
53339;SDS011;46212;50.258;19.062;2023-04-06T12:02:36;10.02;;;5.65;;
53339;SDS011;46212;50.258;19.062;2023-04-06T12:05:02;8.55;;;4.93;;
53339;SDS011;46212;50.258;19.062;2023-04-06T12:07:30;21.88;;;10.27;;
53339;SDS011;46212;50.258;19.062;2023-04-06T12:09:55;29.48;;;14.20;;
53339;SDS011;46212;50.258;19.062;2023-04-06T12:12:21;18.60;;;8.45;;
53339;SDS011;46212;50.258;19.062;2023-04-06T12:14:46;13.57;;;5.32;;
53339;SDS011;46212;50.258;19.062;2023-04-06T12:17:12;8.25;;;4.75;;
53339;SDS011;46212;50.258;19.062;2023-04-06T12:19:37;12.68;;;6.70;;
53339;SDS011;46212;50.258;19.062;2023-04-06T12:22:02;12.05;;;6.40;;
53339;SDS011;46212;50.258;19.062;2023-04-06T12:24:28;11.02;;;6.10;;
53339;SDS011;46212;50.258;19.062;2023-04-06T12:26:54;25.80;;;12.13;;
53339;SDS011;46212;50.258;19.062;2023-04-06T12:29:20;16.98;;;10.07;;
53339;SDS011;46212;50.258;19.062;2023-04-06T12:31:45;10.43;;;5.95;;
53339;SDS011;46212;50.258;19.062;2023-04-06T12:34:11;14.55;;;7.90;;
53339;SDS011;46212;50.258;19.062;2023-04-06T12:36:37;16.55;;;8.25;;
53339;SDS011;46212;50.258;19.062;2023-04-06T12:39:04;12.60;;;7.57;;
53339;SDS011;46212;50.258;19.062;2023-04-06T12:41:30;13.35;;;6.40;;
53339;SDS011;46212;50.258;19.062;2023-04-06T12:43:55;9.63;;;6.13;;
53339;SDS011;46212;50.258;19.062;2023-04-06T12:46:21;10.93;;;5.65;;
53339;SDS011;46212;50.258;19.062;2023-04-06T12:48:47;12.48;;;6.53;;
53339;SDS011;46212;50.258;19.062;2023-04-06T12:51:13;8.07;;;4.82;;
53339;SDS011;46212;50.258;19.062;2023-04-06T12:53:39;16.70;;;9.18;;
53339;SDS011;46212;50.258;19.062;2023-04-06T12:56:15;38.33;;;17.65;;
53339;SDS011;46212;50.258;19.062;2023-04-06T12:58:42;7.65;;;4.70;;
53339;SDS011;46212;50.258;19.062;2023-04-06T13:01:08;18.40;;;6.82;;
53339;SDS011;46212;50.258;19.062;2023-04-06T13:03:33;7.03;;;3.78;;
53339;SDS011;46212;50.258;19.062;2023-04-06T13:05:59;15.65;;;6.60;;
53339;SDS011;46212;50.258;19.062;2023-04-06T13:08:26;13.57;;;6.88;;
53339;SDS011;46212;50.258;19.062;2023-04-06T13:10:52;17.40;;;6.73;;
53339;SDS011;46212;50.258;19.062;2023-04-06T13:13:28;10.00;;;6.53;;
53339;SDS011;46212;50.258;19.062;2023-04-06T13:15:55;10.02;;;5.13;;
53339;SDS011;46212;50.258;19.062;2023-04-06T13:18:24;17.05;;;7.22;;
53339;SDS011;46212;50.258;19.062;2023-04-06T13:20:50;16.77;;;8.00;;
53339;SDS011;46212;50.258;19.062;2023-04-06T13:23:15;10.05;;;6.25;;
53339;SDS011;46212;50.258;19.062;2023-04-06T13:25:41;17.00;;;7.85;;
53339;SDS011;46212;50.258;19.062;2023-04-06T13:28:07;15.65;;;9.80;;
53339;SDS011;46212;50.258;19.062;2023-04-06T13:30:33;14.95;;;8.15;;
53339;SDS011;46212;50.258;19.062;2023-04-06T13:32:58;19.33;;;9.93;;
53339;SDS011;46212;50.258;19.062;2023-04-06T13:35:24;13.70;;;9.65;;
53339;SDS011;46212;50.258;19.062;2023-04-06T13:37:49;12.93;;;8.95;;
53339;SDS011;46212;50.258;19.062;2023-04-06T13:40:17;16.38;;;8.63;;
53339;SDS011;46212;50.258;19.062;2023-04-06T13:42:43;12.98;;;7.75;;
53339;SDS011;46212;50.258;19.062;2023-04-06T13:45:10;14.93;;;8.77;;
53339;SDS011;46212;50.258;19.062;2023-04-06T13:47:35;19.52;;;10.25;;
53339;SDS011;46212;50.258;19.062;2023-04-06T13:50:01;13.00;;;6.70;;
53339;SDS011;46212;50.258;19.062;2023-04-06T13:52:27;16.85;;;10.65;;
53339;SDS011;46212;50.258;19.062;2023-04-06T13:54:52;10.02;;;6.70;;
53339;SDS011;46212;50.258;19.062;2023-04-06T13:57:17;9.38;;;5.78;;
53339;SDS011;46212;50.258;19.062;2023-04-06T13:59:43;16.45;;;8.50;;
53339;SDS011;46212;50.258;19.062;2023-04-06T14:02:09;13.52;;;8.00;;
53339;SDS011;46212;50.258;19.062;2023-04-06T14:04:36;14.90;;;8.27;;
53339;SDS011;46212;50.258;19.062;2023-04-06T14:07:02;29.43;;;18.20;;
53339;SDS011;46212;50.258;19.062;2023-04-06T14:09:28;30.35;;;18.27;;
53339;SDS011;46212;50.258;19.062;2023-04-06T14:11:54;18.13;;;9.63;;
53339;SDS011;46212;50.258;19.062;2023-04-06T14:14:21;18.63;;;9.68;;
53339;SDS011;46212;50.258;19.062;2023-04-06T14:16:47;27.15;;;14.85;;
53339;SDS011;46212;50.258;19.062;2023-04-06T14:19:14;19.90;;;14.05;;
53339;SDS011;46212;50.258;19.062;2023-04-06T14:21:43;20.67;;;11.88;;
53339;SDS011;46212;50.258;19.062;2023-04-06T14:24:09;20.55;;;9.98;;